createdAt,value
2022-11-16T00:00:43.441Z,29.42
2022-11-16T00:03:46.968Z,21.75
2022-11-16T00:06:49.923Z,23.42
2022-11-16T00:09:55.681Z,27.77
2022-11-16T00:12:58.103Z,23.42
2022-11-16T00:16:01.193Z,27.45
2022-11-16T00:19:05.670Z,32.22
2022-11-16T00:22:08.396Z,24.58
2022-11-16T00:25:10.815Z,27.35
2022-11-16T00:28:13.635Z,32.08
2022-11-16T00:31:16.132Z,25.40
2022-11-16T00:34:19.885Z,27.92
2022-11-16T00:37:22.328Z,25.17
2022-11-16T00:40:25.130Z,22.80
2022-11-16T00:43:28.492Z,31.92
2022-11-16T00:46:31.171Z,25.90
2022-11-16T00:49:33.672Z,31.12
2022-11-16T00:52:36.536Z,32.95
2022-11-16T00:55:39.304Z,35.00
2022-11-16T00:58:42.487Z,30.67
2022-11-16T01:01:45.670Z,28.58
2022-11-16T01:04:48.492Z,27.27
2022-11-16T01:07:51.393Z,30.02
2022-11-16T01:10:54.733Z,24.95
2022-11-16T01:13:57.182Z,30.67
2022-11-16T01:17:01.488Z,27.65
2022-11-16T01:20:06.089Z,27.70
2022-11-16T01:23:08.850Z,28.77
2022-11-16T01:26:11.334Z,28.45
2022-11-16T01:29:15.044Z,24.27
2022-11-16T01:32:18.739Z,32.78
2022-11-16T01:35:21.794Z,31.42
2022-11-16T01:38:28.547Z,26.65
2022-11-16T01:41:34.537Z,32.28
2022-11-16T01:44:37.708Z,27.73
2022-11-16T01:47:41.206Z,28.70
2022-11-16T01:50:45.544Z,27.75
2022-11-16T01:53:49.591Z,34.05
2022-11-16T01:56:54.799Z,33.88
2022-11-16T02:00:00.404Z,25.60
2022-11-16T02:03:03.336Z,32.17
2022-11-16T02:06:22.905Z,27.20
2022-11-16T02:09:48.272Z,33.17
2022-11-16T02:13:19.208Z,26.48
2022-11-16T02:16:53.831Z,31.35
2022-11-16T02:20:00.302Z,24.17
2022-11-16T02:23:18.631Z,24.70
2022-11-16T02:26:49.799Z,29.87
2022-11-16T02:29:54.921Z,25.25
2022-11-16T02:33:04.433Z,25.12
2022-11-16T02:36:12.130Z,32.97
2022-11-16T02:39:18.717Z,27.95
2022-11-16T02:42:32.766Z,26.52
2022-11-16T02:45:41.391Z,25.27
2022-11-16T02:48:49.344Z,29.08
2022-11-16T02:51:54.403Z,22.73
2022-11-16T02:54:57.337Z,17.95
2022-11-16T02:58:03.838Z,27.10
2022-11-16T03:01:16.276Z,25.95
2022-11-16T03:04:28.286Z,27.05
2022-11-16T03:07:38.593Z,22.87
2022-11-16T03:11:04.512Z,29.37
2022-11-16T03:14:12.433Z,32.28
2022-11-16T03:17:23.743Z,27.25
2022-11-16T03:20:31.867Z,24.87
2022-11-16T03:23:34.626Z,19.15
2022-11-16T03:26:51.200Z,27.80
2022-11-16T03:30:03.516Z,21.77
2022-11-16T03:33:21.874Z,25.00
2022-11-16T03:36:35.259Z,20.37
2022-11-16T03:39:39.569Z,23.30
2022-11-16T03:42:44.562Z,23.38
2022-11-16T03:45:48.987Z,25.67
2022-11-16T03:48:57.783Z,21.52
2022-11-16T03:52:00.826Z,20.40
2022-11-16T03:55:05.326Z,21.35
2022-11-16T03:58:09.359Z,19.20
2022-11-16T04:01:13.656Z,21.50
2022-11-16T04:04:35.255Z,20.30
2022-11-16T04:07:57.291Z,22.92
2022-11-16T04:11:19.417Z,18.98
2022-11-16T04:14:42.874Z,15.20
2022-11-16T04:18:04.955Z,19.73
2022-11-16T04:21:35.921Z,18.65
2022-11-16T04:24:41.523Z,27.73
2022-11-16T04:28:02.806Z,19.37
2022-11-16T04:31:25.333Z,19.20
2022-11-16T04:34:48.093Z,22.98
2022-11-16T04:37:54.677Z,22.52
2022-11-16T04:40:57.726Z,15.43
2022-11-16T04:44:01.126Z,19.75
2022-11-16T04:47:06.872Z,22.95
2022-11-16T04:50:10.312Z,22.27
2022-11-16T04:53:14.638Z,20.35
2022-11-16T04:56:18.595Z,21.55
2022-11-16T04:59:22.546Z,24.02
2022-11-16T05:02:26.084Z,25.15
2022-11-16T05:05:29.127Z,20.92
2022-11-16T05:08:32.874Z,27.65
2022-11-16T05:11:35.796Z,25.35
2022-11-16T05:14:38.766Z,30.80
2022-11-16T05:17:41.213Z,28.80
2022-11-16T05:21:01.060Z,22.58
2022-11-16T05:24:22.698Z,25.35
2022-11-16T05:27:26.966Z,23.83
2022-11-16T05:30:30.273Z,26.92
2022-11-16T05:33:33.629Z,29.12
2022-11-16T05:36:36.185Z,34.67
2022-11-16T05:39:39.412Z,32.00
2022-11-16T05:42:42.152Z,31.73
2022-11-16T05:45:45.082Z,34.28
2022-11-16T05:48:49.347Z,37.38
2022-11-16T05:51:52.776Z,30.20
2022-11-16T05:54:55.686Z,33.45
2022-11-16T05:57:58.652Z,28.70
2022-11-16T06:01:01.246Z,37.25
2022-11-16T06:04:04.364Z,32.08
2022-11-16T06:07:07.520Z,34.38
2022-11-16T06:10:10.933Z,32.97
2022-11-16T06:13:14.055Z,40.12
2022-11-16T06:16:17.415Z,32.47
2022-11-16T06:19:20.128Z,33.83
2022-11-16T06:22:23.213Z,37.35
2022-11-16T06:25:26.015Z,30.10
2022-11-16T06:28:29.675Z,39.13
2022-11-16T06:31:32.466Z,26.83
2022-11-16T06:34:35.956Z,38.63
2022-11-16T06:37:38.511Z,30.12
2022-11-16T06:40:42.187Z,29.83
2022-11-16T06:43:45.164Z,28.38
2022-11-16T06:46:49.215Z,34.42
2022-11-16T06:49:51.887Z,37.78
2022-11-16T06:52:55.553Z,30.88
2022-11-16T06:56:06.305Z,34.72
2022-11-16T06:59:10.869Z,34.33
2022-11-16T07:02:13.988Z,30.50
2022-11-16T07:05:17.181Z,33.67
2022-11-16T07:08:20.503Z,34.67
2022-11-16T07:11:23.436Z,33.70
2022-11-16T07:14:26.014Z,40.00
2022-11-16T07:17:28.745Z,38.13
2022-11-16T07:20:31.648Z,35.88
2022-11-16T07:23:35.551Z,33.20
2022-11-16T07:26:38.275Z,30.42
2022-11-16T07:29:41.387Z,39.55
2022-11-16T07:32:44.484Z,34.30
2022-11-16T07:35:47.718Z,41.03
2022-11-16T07:38:50.710Z,33.35
2022-11-16T07:41:54.366Z,44.78
2022-11-16T07:44:57.066Z,34.22
2022-11-16T07:48:01.049Z,37.42
2022-11-16T07:51:08.594Z,30.70
2022-11-16T07:54:15.381Z,35.33
2022-11-16T07:57:17.775Z,30.40
2022-11-16T08:00:20.645Z,30.48
2022-11-16T08:03:24.873Z,35.83
2022-11-16T08:06:30.511Z,40.12
2022-11-16T08:09:34.915Z,33.50
2022-11-16T08:12:37.743Z,34.10
2022-11-16T08:15:41.273Z,39.03
2022-11-16T08:18:45.245Z,33.92
2022-11-16T08:21:48.861Z,34.78
2022-11-16T08:24:51.518Z,28.25
2022-11-16T08:27:54.334Z,36.58
2022-11-16T08:30:59.904Z,32.58
2022-11-16T08:34:04.122Z,43.25
2022-11-16T08:37:07.928Z,37.90
2022-11-16T08:40:12.487Z,42.75
2022-11-16T08:43:15.276Z,37.00
2022-11-16T08:46:19.298Z,34.70
2022-11-16T08:49:23.945Z,30.90
2022-11-16T08:52:27.735Z,48.50
2022-11-16T08:55:30.466Z,37.38
2022-11-16T08:58:33.770Z,44.38
2022-11-16T09:01:36.752Z,35.83
2022-11-16T09:04:39.689Z,36.05
2022-11-16T09:07:44.110Z,40.08
2022-11-16T09:10:46.892Z,34.60
2022-11-16T09:13:51.452Z,41.22
2022-11-16T09:16:54.205Z,38.65
2022-11-16T09:19:56.773Z,32.90
2022-11-16T09:22:59.555Z,32.42
2022-11-16T09:26:06.447Z,37.40
2022-11-16T09:29:14.164Z,34.40
2022-11-16T09:32:16.655Z,37.25
2022-11-16T09:35:20.863Z,34.20
2022-11-16T09:38:34.892Z,31.17
2022-11-16T09:42:21.752Z,44.25
2022-11-16T09:45:33.118Z,32.75
2022-11-16T09:48:38.841Z,34.65
2022-11-16T09:51:43.521Z,36.53
2022-11-16T09:54:47.993Z,33.00
2022-11-16T09:57:55.469Z,41.00
2022-11-16T10:01:31.069Z,37.17
2022-11-16T10:04:43.876Z,36.05
2022-11-16T10:07:50.193Z,29.40
2022-11-16T10:11:17.321Z,30.27
2022-11-16T10:14:41.918Z,40.80
2022-11-16T10:18:17.234Z,41.40
2022-11-16T10:21:25.698Z,33.20
2022-11-16T10:24:59.710Z,34.88
2022-11-16T10:28:20.995Z,32.33
2022-11-16T10:31:36.199Z,32.90
2022-11-16T10:34:51.197Z,37.97
2022-11-16T10:37:55.466Z,36.45
2022-11-16T10:41:05.726Z,29.20
2022-11-16T10:44:36.622Z,31.02
2022-11-16T10:47:44.712Z,25.85
2022-11-16T10:53:53.059Z,28.38
2022-11-16T10:57:05.135Z,25.70
2022-11-16T11:00:12.899Z,32.00
2022-11-16T11:03:31.295Z,25.20
2022-11-16T11:06:34.169Z,30.70
2022-11-16T11:09:38.615Z,27.45
2022-11-16T11:12:42.455Z,29.45
2022-11-16T11:15:45.458Z,31.62
2022-11-16T11:18:48.073Z,27.98
2022-11-16T11:21:56.293Z,30.05
2022-11-16T11:25:02.057Z,32.33
2022-11-16T11:28:28.587Z,28.27
2022-11-16T11:31:38.996Z,26.10
2022-11-16T11:34:45.686Z,24.05
2022-11-16T11:37:52.288Z,26.65
2022-11-16T11:41:00.412Z,28.55
2022-11-16T11:44:21.155Z,29.20
2022-11-16T11:48:00.707Z,30.10
2022-11-16T11:51:15.444Z,26.08
2022-11-16T11:54:24.964Z,27.90
2022-11-16T11:57:27.565Z,26.65
2022-11-16T12:00:57.621Z,24.73
2022-11-16T12:04:24.642Z,25.08
2022-11-16T12:07:46.299Z,32.67
2022-11-16T12:10:53.277Z,23.85
2022-11-16T12:14:14.560Z,26.20
2022-11-16T12:17:52.732Z,26.95
2022-11-16T12:21:03.667Z,20.92
2022-11-16T12:24:38.700Z,25.45
2022-11-16T12:28:00.226Z,23.87
2022-11-16T12:31:30.630Z,24.40
2022-11-16T12:35:10.771Z,24.65
2022-11-16T12:39:07.790Z,24.60
2022-11-16T12:42:27.236Z,27.90
2022-11-16T12:45:58.343Z,21.98
2022-11-16T12:49:28.426Z,24.50
2022-11-16T12:52:34.435Z,23.00
2022-11-16T12:56:26.002Z,21.65
2022-11-16T12:59:53.452Z,25.12
2022-11-16T13:03:23.218Z,23.77
2022-11-16T13:06:32.027Z,18.98
2022-11-16T13:12:43.078Z,21.70
2022-11-16T13:15:47.929Z,22.25
2022-11-16T13:18:52.326Z,24.70
2022-11-16T13:22:05.649Z,27.50
2022-11-16T13:25:23.043Z,22.58
2022-11-16T13:28:35.410Z,22.30
2022-11-16T13:32:00.414Z,23.52
2022-11-16T13:35:11.943Z,25.12
2022-11-16T13:38:14.664Z,25.88
2022-11-16T13:41:30.493Z,21.40
2022-11-16T13:44:33.708Z,22.50
2022-11-16T13:47:37.437Z,21.92
2022-11-16T13:50:46.925Z,17.25
2022-11-16T13:57:24.764Z,21.97
2022-11-16T14:00:36.558Z,21.08
2022-11-16T14:03:47.692Z,22.70
2022-11-16T14:06:50.063Z,21.85
2022-11-16T14:09:52.750Z,21.37
2022-11-16T14:12:55.665Z,21.90
2022-11-16T14:16:17.214Z,20.48
2022-11-16T14:19:44.617Z,19.87
2022-11-16T14:22:53.228Z,19.17
2022-11-16T14:29:20.587Z,15.82
2022-11-16T14:32:28.613Z,23.83
2022-11-16T14:35:34.137Z,20.95
2022-11-16T14:38:42.699Z,22.60
2022-11-16T14:41:46.480Z,21.62
2022-11-16T14:44:50.323Z,17.27
2022-11-16T14:48:00.953Z,20.50
2022-11-16T14:51:08.631Z,20.67
2022-11-16T14:54:19.899Z,21.85
2022-11-16T14:57:23.952Z,20.90
2022-11-16T15:00:26.954Z,19.73
2022-11-16T15:03:39.007Z,25.70
2022-11-16T15:06:48.545Z,18.48
2022-11-16T15:09:55.259Z,18.73
2022-11-16T15:12:58.126Z,15.88
2022-11-16T15:16:16.055Z,18.20
2022-11-16T15:19:20.630Z,15.98
2022-11-16T15:22:39.171Z,20.23
2022-11-16T15:25:44.997Z,19.85
2022-11-16T15:28:50.256Z,23.20
2022-11-16T15:31:53.222Z,16.58
2022-11-16T15:34:55.711Z,18.42
2022-11-16T15:38:17.259Z,22.20
2022-11-16T15:41:20.889Z,19.40
2022-11-16T15:44:24.717Z,14.73
2022-11-16T15:47:27.739Z,15.48
2022-11-16T15:50:31.358Z,14.32
2022-11-16T15:53:40.228Z,19.75
2022-11-16T15:56:42.968Z,19.90
2022-11-16T15:59:52.063Z,19.37
2022-11-16T16:03:04.297Z,17.60
2022-11-16T16:06:13.203Z,20.08
2022-11-16T16:15:29.913Z,15.45
2022-11-16T16:18:41.786Z,20.12
2022-11-16T16:21:46.094Z,18.33
2022-11-16T16:24:48.871Z,17.83
2022-11-16T16:27:51.340Z,17.52
2022-11-16T16:30:54.052Z,15.70
2022-11-16T16:33:56.708Z,15.18
2022-11-16T16:36:59.464Z,16.52
2022-11-16T16:40:02.395Z,18.40
2022-11-16T16:43:05.184Z,20.45
2022-11-16T16:46:11.042Z,20.48
2022-11-16T16:49:14.012Z,15.65
2022-11-16T16:52:17.611Z,17.77
2022-11-16T16:55:20.463Z,18.30
2022-11-16T16:58:23.041Z,14.77
2022-11-16T17:01:26.694Z,19.17
2022-11-16T17:04:29.308Z,14.90
2022-11-16T17:07:32.143Z,16.37
2022-11-16T17:10:34.696Z,18.60
2022-11-16T17:13:37.547Z,18.33
2022-11-16T17:16:40.283Z,13.43
2022-11-16T17:19:43.002Z,16.10
2022-11-16T17:22:46.012Z,16.10
2022-11-16T17:25:48.749Z,15.75
2022-11-16T17:28:55.650Z,20.33
2022-11-16T17:31:58.355Z,16.20
2022-11-16T17:35:00.787Z,16.62
2022-11-16T17:38:03.556Z,13.18
2022-11-16T17:41:10.636Z,16.02
2022-11-16T17:44:18.622Z,15.77
2022-11-16T17:47:23.836Z,12.37
2022-11-16T17:50:26.617Z,13.23
2022-11-16T17:53:32.619Z,16.70
2022-11-16T17:56:35.999Z,16.40
2022-11-16T17:59:38.513Z,13.93
2022-11-16T18:02:41.194Z,13.38
2022-11-16T18:05:44.304Z,15.43
2022-11-16T18:08:47.648Z,19.15
2022-11-16T18:11:50.386Z,10.82
2022-11-16T18:15:21.369Z,10.70
2022-11-16T18:18:16.571Z,13.45
2022-11-16T18:21:20.886Z,15.18
2022-11-16T18:24:23.865Z,11.68
2022-11-16T18:27:26.504Z,14.70
2022-11-16T18:30:29.244Z,12.52
2022-11-16T18:33:32.156Z,11.55
2022-11-16T18:36:35.347Z,12.05
2022-11-16T18:39:37.934Z,12.75
2022-11-16T18:42:41.666Z,12.07
2022-11-16T18:45:44.206Z,9.85
2022-11-16T18:48:47.276Z,11.07
2022-11-16T18:51:49.778Z,11.10
2022-11-16T18:54:52.503Z,10.75
2022-11-16T18:57:54.898Z,11.10
2022-11-16T19:01:05.606Z,12.60
2022-11-16T19:04:08.796Z,10.30
2022-11-16T19:07:11.636Z,21.23
2022-11-16T19:10:14.718Z,9.98
2022-11-16T19:13:17.503Z,11.43
2022-11-16T19:16:19.992Z,7.28
2022-11-16T19:19:22.980Z,9.10
2022-11-16T19:22:25.650Z,8.02
2022-11-16T19:25:28.405Z,8.82
2022-11-16T19:28:38.239Z,11.00
2022-11-16T19:31:41.078Z,9.23
2022-11-16T19:34:43.565Z,9.63
2022-11-16T19:37:46.244Z,11.18
2022-11-16T19:40:51.137Z,7.10
2022-11-16T19:43:59.660Z,11.93
2022-11-16T19:47:02.199Z,17.87
2022-11-16T19:50:06.920Z,10.18
2022-11-16T19:53:09.450Z,10.27
2022-11-16T19:56:14.734Z,10.38
2022-11-16T19:59:17.224Z,12.18
2022-11-16T20:02:20.034Z,12.75
2022-11-16T20:05:23.584Z,10.07
2022-11-16T20:08:26.043Z,9.73
2022-11-16T20:11:30.565Z,7.05
2022-11-16T20:14:33.039Z,9.18
2022-11-16T20:17:35.782Z,7.93
2022-11-16T20:20:38.209Z,9.73
2022-11-16T20:23:40.975Z,8.50
2022-11-16T20:26:46.723Z,9.02
2022-11-16T20:29:49.431Z,11.20
2022-11-16T20:32:51.894Z,8.63
2022-11-16T20:36:10.125Z,11.60
2022-11-16T20:39:17.630Z,10.68
2022-11-16T20:42:20.368Z,12.37
2022-11-16T20:45:22.822Z,15.07
2022-11-16T20:48:25.507Z,11.10
2022-11-16T20:51:29.137Z,14.20
2022-11-16T20:54:32.120Z,11.35
2022-11-16T20:57:34.600Z,11.30
2022-11-16T21:00:37.498Z,12.37
2022-11-16T21:03:40.499Z,10.98
2022-11-16T21:06:43.573Z,9.13
2022-11-16T21:10:04.830Z,11.32
2022-11-16T21:13:31.856Z,11.65
2022-11-16T21:16:34.770Z,9.57
2022-11-16T21:19:37.509Z,11.10
2022-11-16T21:22:39.978Z,11.27
2022-11-16T21:25:42.677Z,10.40
2022-11-16T21:28:45.566Z,12.00
2022-11-16T21:31:48.607Z,9.60
2022-11-16T21:34:51.098Z,13.43
2022-11-16T21:37:53.749Z,12.18
2022-11-16T21:40:56.165Z,14.95
2022-11-16T21:43:58.902Z,12.65
2022-11-16T21:47:01.380Z,13.38
2022-11-16T21:53:26.916Z,13.30
2022-11-16T21:56:29.618Z,10.82
2022-11-16T21:59:32.046Z,16.98
2022-11-16T22:02:34.764Z,16.25
2022-11-16T22:05:56.164Z,16.37
2022-11-16T22:08:59.336Z,19.17
2022-11-16T22:12:05.282Z,16.40
2022-11-16T22:15:08.312Z,14.32
2022-11-16T22:18:11.262Z,18.20
2022-11-16T22:21:13.821Z,22.13
2022-11-16T22:24:16.530Z,15.98
2022-11-16T22:27:19.460Z,15.32
2022-11-16T22:30:22.199Z,20.77
2022-11-16T22:33:24.956Z,20.60
2022-11-16T22:36:27.714Z,17.75
2022-11-16T22:39:30.190Z,18.50
2022-11-16T22:42:32.898Z,17.73
2022-11-16T22:45:35.278Z,14.93
2022-11-16T22:48:40.002Z,16.20
2022-11-16T22:51:42.419Z,14.00
2022-11-16T22:54:45.134Z,20.00
2022-11-16T22:57:47.583Z,15.73
2022-11-16T23:00:51.800Z,18.55
2022-11-16T23:03:54.644Z,15.40
2022-11-16T23:06:57.525Z,14.93
2022-11-16T23:10:00.097Z,12.50
2022-11-16T23:13:21.408Z,15.57
2022-11-16T23:16:23.854Z,16.20
2022-11-16T23:19:45.522Z,16.35
2022-11-16T23:23:07.098Z,17.90
2022-11-16T23:26:33.994Z,14.38
2022-11-16T23:29:36.666Z,13.90
2022-11-16T23:32:39.622Z,16.12
2022-11-16T23:35:42.004Z,14.90
2022-11-16T23:38:44.734Z,12.93
2022-11-16T23:42:05.790Z,13.00
2022-11-16T23:45:08.904Z,13.50
2022-11-16T23:48:13.818Z,16.37
2022-11-16T23:51:18.689Z,18.55
2022-11-16T23:54:21.192Z,13.40
2022-11-16T23:57:23.863Z,13.55
